sensor_id;sensor_type;location;lat;lon;timestamp;pressure;altitude;pressure_sealevel;temperature;humidity
23679;BME280;12016;51.668;6.874;2022-12-29T00:00:50;100154.16;;;12.64;100.00
23679;BME280;12016;51.668;6.874;2022-12-29T00:06:52;100132.00;;;12.53;100.00
23679;BME280;12016;51.668;6.874;2022-12-29T00:12:55;100153.63;;;12.24;100.00
23679;BME280;12016;51.668;6.874;2022-12-29T00:19:15;100180.75;;;11.92;100.00
23679;BME280;12016;51.668;6.874;2022-12-29T00:25:35;100208.53;;;11.78;100.00
23679;BME280;12016;51.668;6.874;2022-12-29T00:31:56;100229.16;;;11.60;100.00
23679;BME280;12016;51.668;6.874;2022-12-29T00:38:16;100232.34;;;11.41;100.00
23679;BME280;12016;51.668;6.874;2022-12-29T00:44:38;100251.75;;;11.44;100.00
23679;BME280;12016;51.668;6.874;2022-12-29T00:50:40;100241.06;;;11.39;100.00
23679;BME280;12016;51.668;6.874;2022-12-29T00:56:42;100240.25;;;11.49;100.00
23679;BME280;12016;51.668;6.874;2022-12-29T01:02:43;100239.09;;;11.43;100.00
23679;BME280;12016;51.668;6.874;2022-12-29T01:08:45;100243.44;;;11.51;100.00
23679;BME280;12016;51.668;6.874;2022-12-29T01:14:47;100248.56;;;11.56;100.00
23679;BME280;12016;51.668;6.874;2022-12-29T01:20:49;100247.41;;;11.43;100.00
23679;BME280;12016;51.668;6.874;2022-12-29T01:26:52;100250.53;;;11.56;100.00
23679;BME280;12016;51.668;6.874;2022-12-29T01:32:54;100234.69;;;11.56;100.00
23679;BME280;12016;51.668;6.874;2022-12-29T01:38:56;100225.19;;;11.61;100.00
23679;BME280;12016;51.668;6.874;2022-12-29T01:45:02;100225.22;;;11.68;100.00
23679;BME280;12016;51.668;6.874;2022-12-29T01:51:04;100219.25;;;11.69;100.00
23679;BME280;12016;51.668;6.874;2022-12-29T01:57:09;100203.75;;;11.82;100.00
23679;BME280;12016;51.668;6.874;2022-12-29T02:03:13;100178.34;;;11.94;100.00
23679;BME280;12016;51.668;6.874;2022-12-29T02:09:15;100159.31;;;11.93;100.00
23679;BME280;12016;51.668;6.874;2022-12-29T02:15:17;100137.09;;;12.03;100.00
23679;BME280;12016;51.668;6.874;2022-12-29T02:27:53;100094.53;;;12.24;100.00
23679;BME280;12016;51.668;6.874;2022-12-29T02:34:13;100067.97;;;12.26;100.00
23679;BME280;12016;51.668;6.874;2022-12-29T02:40:23;100035.31;;;12.45;100.00
23679;BME280;12016;51.668;6.874;2022-12-29T02:53:13;100020.28;;;12.39;100.00
23679;BME280;12016;51.668;6.874;2022-12-29T02:59:16;100012.75;;;12.39;100.00
23679;BME280;12016;51.668;6.874;2022-12-29T03:05:51;100005.94;;;12.47;100.00
23679;BME280;12016;51.668;6.874;2022-12-29T03:12:14;99995.66;;;12.44;100.00
23679;BME280;12016;51.668;6.874;2022-12-29T03:18:29;100036.19;;;12.35;100.00
23679;BME280;12016;51.668;6.874;2022-12-29T03:24:35;100018.44;;;12.25;100.00
23679;BME280;12016;51.668;6.874;2022-12-29T03:30:39;100023.56;;;12.26;100.00
23679;BME280;12016;51.668;6.874;2022-12-29T03:36:49;100006.19;;;12.15;100.00
23679;BME280;12016;51.668;6.874;2022-12-29T03:42:54;100004.56;;;12.21;100.00
23679;BME280;12016;51.668;6.874;2022-12-29T03:48:56;100010.34;;;11.93;100.00
23679;BME280;12016;51.668;6.874;2022-12-29T03:54:59;100064.41;;;11.54;100.00
23679;BME280;12016;51.668;6.874;2022-12-29T04:01:01;100171.38;;;11.37;100.00
23679;BME280;12016;51.668;6.874;2022-12-29T04:07:05;100182.47;;;11.27;100.00
23679;BME280;12016;51.668;6.874;2022-12-29T04:13:08;100186.81;;;11.24;100.00
23679;BME280;12016;51.668;6.874;2022-12-29T04:19:10;100195.13;;;11.24;100.00
23679;BME280;12016;51.668;6.874;2022-12-29T04:25:12;100199.09;;;11.23;100.00
23679;BME280;12016;51.668;6.874;2022-12-29T04:31:15;100201.50;;;11.11;100.00
23679;BME280;12016;51.668;6.874;2022-12-29T04:37:19;100229.19;;;11.04;100.00
23679;BME280;12016;51.668;6.874;2022-12-29T04:43:21;100225.59;;;10.50;100.00
23679;BME280;12016;51.668;6.874;2022-12-29T04:50:01;100293.88;;;13.15;100.00
23679;BME280;12016;51.668;6.874;2022-12-29T04:56:27;100264.78;;;10.70;100.00
23679;BME280;12016;51.668;6.874;2022-12-29T05:02:29;100248.13;;;10.49;100.00
23679;BME280;12016;51.668;6.874;2022-12-29T05:08:31;100276.59;;;10.56;100.00
23679;BME280;12016;51.668;6.874;2022-12-29T05:14:35;100266.66;;;10.38;100.00
23679;BME280;12016;51.668;6.874;2022-12-29T05:20:37;100235.44;;;10.41;100.00
23679;BME280;12016;51.668;6.874;2022-12-29T05:26:39;100224.38;;;10.48;100.00
23679;BME280;12016;51.668;6.874;2022-12-29T05:33:07;100212.91;;;10.39;100.00
23679;BME280;12016;51.668;6.874;2022-12-29T05:39:14;100199.09;;;10.53;100.00
23679;BME280;12016;51.668;6.874;2022-12-29T05:45:18;100225.94;;;10.35;100.00
23679;BME280;12016;51.668;6.874;2022-12-29T05:51:29;100239.78;;;10.38;100.00
23679;BME280;12016;51.668;6.874;2022-12-29T05:57:31;100259.13;;;10.28;100.00
23679;BME280;12016;51.668;6.874;2022-12-29T06:03:41;100282.00;;;10.25;100.00
23679;BME280;12016;51.668;6.874;2022-12-29T06:09:48;100294.28;;;10.24;100.00
23679;BME280;12016;51.668;6.874;2022-12-29T06:15:50;100285.22;;;10.34;100.00
23679;BME280;12016;51.668;6.874;2022-12-29T06:21:53;100270.59;;;10.37;100.00
23679;BME280;12016;51.668;6.874;2022-12-29T06:27:56;100261.88;;;10.31;100.00
23679;BME280;12016;51.668;6.874;2022-12-29T06:33:58;100259.94;;;10.46;100.00
23679;BME280;12016;51.668;6.874;2022-12-29T06:40:03;100265.84;;;10.34;100.00
23679;BME280;12016;51.668;6.874;2022-12-29T06:46:17;100267.03;;;10.33;100.00
23679;BME280;12016;51.668;6.874;2022-12-29T06:52:19;100261.91;;;10.28;100.00
23679;BME280;12016;51.668;6.874;2022-12-29T06:58:21;100261.94;;;10.42;100.00
23679;BME280;12016;51.668;6.874;2022-12-29T07:04:23;100244.94;;;10.47;100.00
23679;BME280;12016;51.668;6.874;2022-12-29T07:10:26;100245.75;;;10.47;100.00
23679;BME280;12016;51.668;6.874;2022-12-29T07:16:29;100237.44;;;10.51;100.00
23679;BME280;12016;51.668;6.874;2022-12-29T07:22:31;100233.91;;;10.68;100.00
23679;BME280;12016;51.668;6.874;2022-12-29T07:28:35;100237.06;;;10.63;100.00
23679;BME280;12016;51.668;6.874;2022-12-29T07:34:37;100231.53;;;10.77;100.00
23679;BME280;12016;51.668;6.874;2022-12-29T07:40:42;100214.97;;;10.91;100.00
23679;BME280;12016;51.668;6.874;2022-12-29T07:46:44;100213.38;;;10.97;100.00
23679;BME280;12016;51.668;6.874;2022-12-29T07:52:46;100201.50;;;11.04;100.00
23679;BME280;12016;51.668;6.874;2022-12-29T07:58:49;100185.25;;;11.23;100.00
23679;BME280;12016;51.668;6.874;2022-12-29T08:04:51;100186.06;;;11.20;100.00
23679;BME280;12016;51.668;6.874;2022-12-29T08:10:53;100167.44;;;11.31;100.00
23679;BME280;12016;51.668;6.874;2022-12-29T08:16:54;100161.06;;;11.41;100.00
23679;BME280;12016;51.668;6.874;2022-12-29T08:22:56;100160.25;;;11.48;100.00
23679;BME280;12016;51.668;6.874;2022-12-29T08:28:58;100156.28;;;11.66;100.00
23679;BME280;12016;51.668;6.874;2022-12-29T08:35:00;100124.59;;;11.67;100.00
23679;BME280;12016;51.668;6.874;2022-12-29T08:41:02;100112.25;;;11.75;100.00
23679;BME280;12016;51.668;6.874;2022-12-29T08:47:05;100114.19;;;11.85;100.00
23679;BME280;12016;51.668;6.874;2022-12-29T08:53:07;100116.25;;;11.71;100.00
23679;BME280;12016;51.668;6.874;2022-12-29T08:59:09;100115.03;;;11.72;100.00
23679;BME280;12016;51.668;6.874;2022-12-29T09:05:11;100119.78;;;11.75;100.00
23679;BME280;12016;51.668;6.874;2022-12-29T09:11:18;100139.59;;;11.73;100.00
23679;BME280;12016;51.668;6.874;2022-12-29T09:17:20;100148.25;;;11.89;100.00
23679;BME280;12016;51.668;6.874;2022-12-29T09:23:40;100145.09;;;11.87;100.00
23679;BME280;12016;51.668;6.874;2022-12-29T09:29:42;100147.88;;;11.91;100.00
23679;BME280;12016;51.668;6.874;2022-12-29T09:35:45;100137.13;;;11.96;100.00
23679;BME280;12016;51.668;6.874;2022-12-29T09:42:14;100122.81;;;12.08;100.00
23679;BME280;12016;51.668;6.874;2022-12-29T09:48:22;100133.06;;;12.18;100.00
23679;BME280;12016;51.668;6.874;2022-12-29T09:54:39;100127.78;;;12.35;100.00
23679;BME280;12016;51.668;6.874;2022-12-29T10:20:53;100132.94;;;12.32;100.00
23679;BME280;12016;51.668;6.874;2022-12-29T10:26:58;100130.94;;;12.37;100.00
23679;BME280;12016;51.668;6.874;2022-12-29T10:33:06;100149.50;;;12.47;100.00
23679;BME280;12016;51.668;6.874;2022-12-29T10:39:28;100128.03;;;12.58;100.00
23679;BME280;12016;51.668;6.874;2022-12-29T10:45:32;100118.09;;;13.04;100.00
23679;BME280;12016;51.668;6.874;2022-12-29T10:51:39;100123.47;;;12.78;100.00
23679;BME280;12016;51.668;6.874;2022-12-29T10:57:45;100146.97;;;12.66;100.00
23679;BME280;12016;51.668;6.874;2022-12-29T11:10:37;100143.78;;;12.68;100.00
23679;BME280;12016;51.668;6.874;2022-12-29T11:16:41;100161.28;;;12.65;100.00
23679;BME280;12016;51.668;6.874;2022-12-29T11:22:45;100165.00;;;12.44;100.00
23679;BME280;12016;51.668;6.874;2022-12-29T11:35:41;100199.16;;;12.38;100.00
23679;BME280;12016;51.668;6.874;2022-12-29T11:41:51;100191.56;;;12.42;100.00
23679;BME280;12016;51.668;6.874;2022-12-29T11:48:08;100204.28;;;12.39;100.00
23679;BME280;12016;51.668;6.874;2022-12-29T11:54:18;100203.84;;;12.48;100.00
23679;BME280;12016;51.668;6.874;2022-12-29T12:00:22;100206.97;;;12.53;100.00
23679;BME280;12016;51.668;6.874;2022-12-29T12:06:28;100191.53;;;12.49;100.00
23679;BME280;12016;51.668;6.874;2022-12-29T12:19:03;100224.16;;;12.30;100.00
23679;BME280;12016;51.668;6.874;2022-12-29T12:25:21;100235.63;;;12.40;100.00
23679;BME280;12016;51.668;6.874;2022-12-29T12:32:01;100226.50;;;12.36;100.00
23679;BME280;12016;51.668;6.874;2022-12-29T12:38:39;100247.59;;;12.19;100.00
23679;BME280;12016;51.668;6.874;2022-12-29T12:45:06;100251.97;;;12.20;100.00
23679;BME280;12016;51.668;6.874;2022-12-29T13:29:40;100269.78;;;12.29;100.00
23679;BME280;12016;51.668;6.874;2022-12-29T13:41:52;100287.19;;;12.33;100.00
23679;BME280;12016;51.668;6.874;2022-12-29T13:48:02;100311.41;;;12.29;100.00
23679;BME280;12016;51.668;6.874;2022-12-29T13:54:15;100295.41;;;12.55;100.00
23679;BME280;12016;51.668;6.874;2022-12-29T14:00:21;100289.78;;;12.72;100.00
23679;BME280;12016;51.668;6.874;2022-12-29T14:06:35;100303.75;;;12.55;100.00
23679;BME280;12016;51.668;6.874;2022-12-29T14:12:43;100307.34;;;12.48;100.00
23679;BME280;12016;51.668;6.874;2022-12-29T14:18:45;100309.78;;;12.43;100.00
23679;BME280;12016;51.668;6.874;2022-12-29T14:24:47;100310.22;;;12.30;100.00
23679;BME280;12016;51.668;6.874;2022-12-29T14:30:51;100332.81;;;12.25;100.00
23679;BME280;12016;51.668;6.874;2022-12-29T14:36:56;100334.44;;;12.26;100.00
23679;BME280;12016;51.668;6.874;2022-12-29T14:43:02;100339.22;;;12.08;100.00
23679;BME280;12016;51.668;6.874;2022-12-29T14:49:23;100345.59;;;12.02;100.00
23679;BME280;12016;51.668;6.874;2022-12-29T14:55:47;100345.59;;;11.91;100.00
23679;BME280;12016;51.668;6.874;2022-12-29T15:01:52;100365.03;;;11.77;100.00
23679;BME280;12016;51.668;6.874;2022-12-29T15:07:55;100356.72;;;11.77;100.00
23679;BME280;12016;51.668;6.874;2022-12-29T15:13:58;100361.88;;;11.82;100.00
23679;BME280;12016;51.668;6.874;2022-12-29T15:20:20;100357.50;;;11.78;100.00
23679;BME280;12016;51.668;6.874;2022-12-29T15:26:23;100349.19;;;11.67;100.00
23679;BME280;12016;51.668;6.874;2022-12-29T15:32:42;100370.94;;;11.51;100.00
23679;BME280;12016;51.668;6.874;2022-12-29T15:38:44;100383.63;;;11.73;100.00
23679;BME280;12016;51.668;6.874;2022-12-29T15:44:46;100385.22;;;11.81;100.00
23679;BME280;12016;51.668;6.874;2022-12-29T15:50:51;100386.41;;;11.73;100.00
23679;BME280;12016;51.668;6.874;2022-12-29T15:56:53;100396.34;;;11.71;100.00
23679;BME280;12016;51.668;6.874;2022-12-29T16:02:58;100397.91;;;11.75;100.00
23679;BME280;12016;51.668;6.874;2022-12-29T16:09:18;100408.59;;;11.73;100.00
23679;BME280;12016;51.668;6.874;2022-12-29T16:15:21;100421.63;;;11.55;100.00
23679;BME280;12016;51.668;6.874;2022-12-29T16:21:33;100422.81;;;11.54;100.00
23679;BME280;12016;51.668;6.874;2022-12-29T16:27:40;100421.63;;;11.41;100.00
23679;BME280;12016;51.668;6.874;2022-12-29T16:33:48;100451.63;;;11.04;100.00
23679;BME280;12016;51.668;6.874;2022-12-29T16:39:50;100486.03;;;10.35;100.00
23679;BME280;12016;51.668;6.874;2022-12-29T16:51:55;100553.81;;;9.38;100.00
23679;BME280;12016;51.668;6.874;2022-12-29T16:57:58;100583.78;;;9.36;100.00
23679;BME280;12016;51.668;6.874;2022-12-29T17:04:05;100582.88;;;9.28;100.00
23679;BME280;12016;51.668;6.874;2022-12-29T17:10:08;100597.03;;;9.23;100.00
23679;BME280;12016;51.668;6.874;2022-12-29T17:16:10;100596.09;;;9.12;100.00
23679;BME280;12016;51.668;6.874;2022-12-29T17:22:16;100626.72;;;9.04;100.00
23679;BME280;12016;51.668;6.874;2022-12-29T17:28:21;100617.94;;;8.95;100.00
23679;BME280;12016;51.668;6.874;2022-12-29T17:34:23;100609.84;;;8.83;100.00
23679;BME280;12016;51.668;6.874;2022-12-29T17:40:28;100640.44;;;8.71;100.00
23679;BME280;12016;51.668;6.874;2022-12-29T17:46:30;100630.59;;;8.73;100.00
23679;BME280;12016;51.668;6.874;2022-12-29T17:52:32;100616.44;;;8.75;100.00
23679;BME280;12016;51.668;6.874;2022-12-29T17:58:34;100614.09;;;8.77;100.00
23679;BME280;12016;51.668;6.874;2022-12-29T18:04:36;100612.94;;;8.78;100.00
23679;BME280;12016;51.668;6.874;2022-12-29T18:10:38;100610.75;;;8.64;100.00
23679;BME280;12016;51.668;6.874;2022-12-29T18:16:40;100643.53;;;8.92;100.00
23679;BME280;12016;51.668;6.874;2022-12-29T18:22:43;100623.94;;;8.74;100.00
23679;BME280;12016;51.668;6.874;2022-12-29T18:28:44;100641.59;;;8.70;100.00
23679;BME280;12016;51.668;6.874;2022-12-29T18:34:50;100638.78;;;8.66;100.00
23679;BME280;12016;51.668;6.874;2022-12-29T18:40:52;100649.72;;;8.59;100.00
23679;BME280;12016;51.668;6.874;2022-12-29T18:46:54;100636.66;;;8.56;100.00
23679;BME280;12016;51.668;6.874;2022-12-29T18:52:56;100654.66;;;8.50;100.00
23679;BME280;12016;51.668;6.874;2022-12-29T18:59:02;100642.25;;;8.63;100.00
23679;BME280;12016;51.668;6.874;2022-12-29T19:05:05;100655.22;;;8.59;100.00
23679;BME280;12016;51.668;6.874;2022-12-29T19:11:17;100667.22;;;8.70;100.00
23679;BME280;12016;51.668;6.874;2022-12-29T19:17:19;100666.78;;;8.68;100.00
23679;BME280;12016;51.668;6.874;2022-12-29T19:23:23;100666.31;;;8.63;100.00
23679;BME280;12016;51.668;6.874;2022-12-29T19:29:25;100652.31;;;8.75;100.00
23679;BME280;12016;51.668;6.874;2022-12-29T19:35:29;100676.69;;;8.69;100.00
23679;BME280;12016;51.668;6.874;2022-12-29T19:41:31;100675.94;;;8.72;100.00
23679;BME280;12016;51.668;6.874;2022-12-29T19:47:33;100685.44;;;8.75;100.00
23679;BME280;12016;51.668;6.874;2022-12-29T19:53:36;100683.09;;;8.77;100.00
23679;BME280;12016;51.668;6.874;2022-12-29T19:59:38;100683.28;;;8.87;100.00
23679;BME280;12016;51.668;6.874;2022-12-29T20:05:47;100690.22;;;8.78;100.00
23679;BME280;12016;51.668;6.874;2022-12-29T20:11:49;100681.69;;;8.86;100.00
23679;BME280;12016;51.668;6.874;2022-12-29T20:17:51;100702.06;;;8.78;100.00
23679;BME280;12016;51.668;6.874;2022-12-29T20:24:14;100691.97;;;8.89;100.00
23679;BME280;12016;51.668;6.874;2022-12-29T20:30:16;100682.50;;;8.87;100.00
23679;BME280;12016;51.668;6.874;2022-12-29T20:36:21;100694.97;;;8.77;100.00
23679;BME280;12016;51.668;6.874;2022-12-29T20:42:23;100706.75;;;8.74;100.00
23679;BME280;12016;51.668;6.874;2022-12-29T20:48:25;100697.28;;;8.75;100.00
23679;BME280;12016;51.668;6.874;2022-12-29T20:54:27;100711.69;;;8.65;100.00
23679;BME280;12016;51.668;6.874;2022-12-29T21:00:31;100705.50;;;8.72;100.00
23679;BME280;12016;51.668;6.874;2022-12-29T21:06:34;100730.56;;;8.63;100.00
23679;BME280;12016;51.668;6.874;2022-12-29T21:12:36;100730.28;;;8.68;100.00
23679;BME280;12016;51.668;6.874;2022-12-29T21:18:38;100735.06;;;8.71;100.00
23679;BME280;12016;51.668;6.874;2022-12-29T21:24:40;100735.72;;;8.65;100.00
23679;BME280;12016;51.668;6.874;2022-12-29T21:30:42;100744.94;;;8.72;100.00
23679;BME280;12016;51.668;6.874;2022-12-29T21:36:44;100738.75;;;8.56;100.00
23679;BME280;12016;51.668;6.874;2022-12-29T21:42:46;100748.25;;;8.59;100.00
23679;BME280;12016;51.668;6.874;2022-12-29T21:48:48;100761.38;;;8.65;100.00
23679;BME280;12016;51.668;6.874;2022-12-29T21:54:50;100749.19;;;8.66;100.00
23679;BME280;12016;51.668;6.874;2022-12-29T22:01:01;100752.53;;;8.56;100.00
23679;BME280;12016;51.668;6.874;2022-12-29T22:07:23;100767.75;;;8.47;100.00
23679;BME280;12016;51.668;6.874;2022-12-29T22:13:45;100778.16;;;8.57;100.00
23679;BME280;12016;51.668;6.874;2022-12-29T22:19:47;100796.97;;;8.51;100.00
23679;BME280;12016;51.668;6.874;2022-12-29T22:25:48;100788.34;;;8.53;100.00
23679;BME280;12016;51.668;6.874;2022-12-29T22:31:52;100805.56;;;8.46;100.00
23679;BME280;12016;51.668;6.874;2022-12-29T22:37:56;100806.94;;;8.37;100.00
23679;BME280;12016;51.668;6.874;2022-12-29T22:43:58;100811.66;;;8.36;100.00
23679;BME280;12016;51.668;6.874;2022-12-29T22:50:00;100822.38;;;8.22;100.00
23679;BME280;12016;51.668;6.874;2022-12-29T22:56:07;100834.38;;;8.30;100.00
23679;BME280;12016;51.668;6.874;2022-12-29T23:02:09;100846.06;;;8.23;100.00
23679;BME280;12016;51.668;6.874;2022-12-29T23:08:11;100856.50;;;8.33;100.00
23679;BME280;12016;51.668;6.874;2022-12-29T23:14:15;100867.84;;;8.28;100.00
23679;BME280;12016;51.668;6.874;2022-12-29T23:20:20;100895.59;;;8.19;100.00
23679;BME280;12016;51.668;6.874;2022-12-29T23:26:25;100891.47;;;8.29;100.00
23679;BME280;12016;51.668;6.874;2022-12-29T23:32:27;100908.03;;;8.29;100.00
23679;BME280;12016;51.668;6.874;2022-12-29T23:38:29;100912.53;;;8.37;100.00
23679;BME280;12016;51.668;6.874;2022-12-29T23:44:31;100922.44;;;8.38;100.00
23679;BME280;12016;51.668;6.874;2022-12-29T23:50:33;100914.72;;;8.28;100.00
23679;BME280;12016;51.668;6.874;2022-12-29T23:56:35;100925.09;;;8.19;100.00
